• Join FlightAware (Why Join?)
  • Login
  • US Flag 
09:09PM EST


 

Airport Tracker/Info


-or-


 

Live Flight TrackerFlight Track Log ✈ DAL1764 ✈ 24-Apr-2013 ✈ KMSP - KDCA

Flight Track Log - Related Links

Times and Time Zones

All times are in EDT time to prevent confusion due to time zone crossing. See the DAL1764 flight status page for this flight to view local times or setup timezone preferences in your user account.

Time Position Orientation Groundspeed Altitude Reporting Facility
EDT Latitude Longitude Course Direction KTS MPH feet Rate Location/Type
11:38AM 44.9122 -93.2394 117° Southeast 172 198 2,400  Level FAA TRACON SMA TRACON (SMA)
11:38AM 44.9300 -93.2381 North 197 227 2,800 1,500 Climbing FAA TRACON SMA TRACON (SMA)
11:38AM 44.9506 -93.2350 North 231 266 3,400 2,220 Climbing FAA TRACON SMA TRACON (SMA)
11:39AM 44.9783 -93.2278 10° North 263 303 4,300 2,820 Climbing FAA TRACON SMA TRACON (SMA)
11:39AM 44.9994 -93.2103 30° Northeast 285 328 5,300 3,000 Climbing FAA TRACON SMA TRACON (SMA)
11:39AM 45.0133 -93.1806 57° Northeast 300 345 6,300 3,120 Climbing FAA TRACON SMA TRACON (SMA)
11:40AM 44.7466 -92.7287 115° Southeast  Level Estimated
11:40AM 45.0167 -93.1344 84° East 314 361 7,400  Level FAA TRACON SMA TRACON (SMA)
11:40AM 45.0075 -93.0994 110° East 314 361 8,700 3,660 Climbing FAA TRACON SMA TRACON (SMA)
11:40AM 44.9939 -93.0689 122° Southeast 305 351 9,800 2,700 Climbing FAA TRACON SMA TRACON (SMA)
11:41AM 44.7009 -92.5648 115° Southeast  Level Estimated
11:41AM 44.9739 -93.0311 127° Southeast 310 357 10,500  Level FAA TRACON SMA TRACON (SMA)
11:41AM 44.9567 -92.9983 127° Southeast 330 380 10,900 1,020 Climbing FAA TRACON SMA TRACON (SMA)
11:41AM 44.9386 -92.9628 126° Southeast 355 409 11,200 1,260 Climbing FAA TRACON SMA TRACON (SMA)
11:42AM 44.6551 -92.4012 115° Southeast  Level Estimated
11:42AM 44.9208 -92.9247 123° Southeast 374 430 11,800  Level FAA TRACON SMA TRACON (SMA)
11:42AM 44.8981 -92.8767 124° Southeast 386 444 12,800 2,400 Climbing FAA TRACON SMA TRACON (SMA)
11:42AM 44.8792 -92.8372 124° Southeast 389 448 13,400 2,100 Climbing FAA TRACON SMA TRACON (SMA)
11:43AM 44.6090 -92.2378 117° Southeast  Level Estimated
11:43AM 44.8544 -92.7881 125° Southeast 399 459 14,200  Level FAA TRACON SMA TRACON (SMA)
11:43AM 44.8344 -92.7475 125° Southeast 407 468 14,900 2,220 Climbing FAA TRACON SMA TRACON (SMA)
11:43AM 44.8139 -92.7075 126° Southeast 410 472 15,700 2,700 Climbing FAA TRACON SMA TRACON (SMA)
11:44AM 44.7889 -92.6569 125° Southeast 411 473 16,700 2,040 Climbing FAA TRACON SMA TRACON (SMA)
11:44AM 44.7686 -92.6161 125° Southeast 412 474 17,200 1,800 Climbing FAA TRACON SMA TRACON (SMA)
11:44AM 44.7425 -92.5647 126° Southeast 419 482 18,000 2,220 Climbing FAA TRACON SMA TRACON (SMA)
11:45AM 44.7211 -92.5228 126° Southeast 424 488 18,600 1,800 Climbing FAA TRACON SMA TRACON (SMA)
11:45AM 44.6806 -92.4378 124° Southeast 429 494 19,700 1,500 Climbing FAA TRACON SMA TRACON (SMA)
11:46AM 44.6578 -92.3961 128° Southeast 433 498 20,100 1,620 Climbing FAA TRACON SMA TRACON (SMA)
11:46AM 44.6303 -92.3419 125° Southeast 441 507 20,800 1,800 Climbing FAA TRACON SMA TRACON (SMA)
11:46AM 44.6089 -92.2983 125° Southeast 443 510 21,300 1,500 Climbing FAA TRACON SMA TRACON (SMA)
11:47AM 44.5881 -92.2539 123° Southeast 445 512 21,800 1,500 Climbing FAA TRACON SMA TRACON (SMA)
11:47AM 44.5600 -92.1989 126° Southeast 448 516 22,300 1,500 Climbing FAA TRACON SMA TRACON (SMA)
11:47AM 44.5375 -92.1547 126° Southeast 453 521 22,800 1,500 Climbing FAA TRACON SMA TRACON (SMA)
11:48AM 44.5139 -92.1106 127° Southeast 456 525 23,300 1,440 Climbing FAA TRACON SMA TRACON (SMA)
11:48AM 44.4869 -92.0542 124° Southeast 457 526 23,800 1,320 Climbing FAA TRACON SMA TRACON (SMA)
11:48AM 44.4633 -92.0094 126° Southeast 460 529 24,200 1,200 Climbing FAA TRACON SMA TRACON (SMA)
11:49AM 44.4464 -91.9758 125° Southeast 461 531 24,600 1,200 Climbing FAA TRACON SMA TRACON (SMA)
11:50AM 44.3547 -91.8203 129° Southeast 460 529 25,900 1,320 Climbing Minneapolis Center
11:51AM 44.2894 -91.6597 120° Southeast 469 540 27,400 1,500 Climbing Minneapolis Center
11:52AM 44.2311 -91.4967 116° Southeast 472 543 29,000 1,200 Climbing Minneapolis Center
11:53AM 44.1711 -91.3361 117° Southeast 471 542 29,900 960 Climbing Minneapolis Center
11:54AM 44.1092 -91.1767 118° Southeast 471 542 31,000 480 Climbing Minneapolis Center
11:55AM 44.0486 -91.0156 118° Southeast 472 543 31,000  Level Minneapolis Center
11:56AM 43.9756 -90.8278 118° Southeast 465 535 31,000  Level Minneapolis Center
11:57AM 43.9133 -90.6722 119° Southeast 464 534 31,000  Level Minneapolis Center
11:58AM 43.8542 -90.5258 119° Southeast 462 532 31,000  Level Minneapolis Center
11:59AM 43.7831 -90.3397 118° Southeast 467 537 31,000  Level Minneapolis Center
12:00PM 43.7206 -90.1844 119° Southeast 463 533 31,000  Level Minneapolis Center
12:01PM 43.6578 -90.0269 119° Southeast 466 536 31,000  Level Minneapolis Center
12:02PM 43.5958 -89.8711 119° Southeast 466 536 31,000  Level Minneapolis Center
12:03PM 43.5533 -89.7681 120° Southeast 464 534 31,000  Level Chicago Center
12:04PM 43.5036 -89.6033 113° Southeast 468 539 31,000  Level Chicago Center
12:05PM 43.4564 -89.4383 111° Southeast 463 533 31,000  Level Chicago Center
12:06PM 43.4100 -89.2736 111° Southeast 464 534 31,000  Level Chicago Center
12:07PM 43.3622 -89.1097 112° Southeast 462 532 31,000  Level Chicago Center
12:08PM 43.3067 -88.9189 112° Southeast 463 533 31,000 60 Level Chicago Center
12:09PM 43.2594 -88.7569 112° Southeast 463 533 31,200 540 Climbing Chicago Center
12:10PM 43.2114 -88.5964 112° Southeast 460 529 32,200 840 Climbing Chicago Center
12:11PM 43.1633 -88.4358 112° Southeast 461 531 33,000 360 Climbing Chicago Center
12:12PM 43.1128 -88.2417 110° East 470 541 33,000  Level Chicago Center
12:13PM 43.0933 -88.0606 98° East 481 554 33,000  Level Chicago Center
12:14PM 43.0739 -87.8789 98° East 484 557 33,000  Level Chicago Center
12:15PM 43.0533 -87.6981 99° East 483 556 33,000  Level Chicago Center
12:16PM 43.0292 -87.4861 99° East 485 558 33,000  Level Chicago Center
12:17PM 43.0100 -87.3203 99° East 481 554 33,000  Level Chicago Center
12:18PM 42.9889 -87.1378 99° East 485 558 33,000  Level Chicago Center
12:19PM 42.9689 -86.9575 99° East 484 557 33,000  Level Chicago Center
12:20PM 42.9431 -86.7444 99° East 477 549 33,000  Level Chicago Center
12:21PM 42.9225 -86.5681 99° East 475 547 33,000  Level Chicago Center
12:22PM 42.9000 -86.3947 100° East 470 541 33,000  Level Chicago Center
12:23PM 42.8778 -86.2206 100° East 472 543 33,000  Level Chicago Center
12:24PM 42.8567 -86.0492 99° East 467 537 33,000  Level Chicago Center
12:26PM 42.8303 -85.8450 100° East 467 537 33,000  Level Chicago Center
12:27PM 42.8083 -85.6722 100° East 469 540 33,000  Level Chicago Center
12:28PM 42.7842 -85.5017 101° East 464 534 33,000  Level Chicago Center
12:29PM 42.7358 -85.3547 114° Southeast 430 495 33,000  Level Chicago Center
12:30PM 42.6853 -85.2103 115° Southeast 424 488 33,000  Level Chicago Center
12:31PM 42.6244 -85.0367 115° Southeast 426 490 33,000  Level Chicago Center
12:32PM 42.5725 -84.8914 116° Southeast 429 494 33,000  Level Chicago Center
12:33PM 42.5203 -84.7469 116° Southeast 429 494 33,000  Level Chicago Center
12:34PM 42.4644 -84.6058 118° Southeast 427 491 33,000  Level Chicago Center
12:34PM 42.4272 -84.5469 131° Southeast 418 481 33,000  Level Cleveland Center
12:35PM 42.3583 -84.4331 129° Southeast 406 467 33,000  Level Cleveland Center
12:36PM 42.2872 -84.3136 129° Southeast 406 467 33,000  Level Cleveland Center
12:37PM 42.2136 -84.1944 130° Southeast 406 467 33,000  Level Cleveland Center
12:38PM 42.1425 -84.0756 129° Southeast 406 467 33,000  Level Cleveland Center
12:39PM 42.0708 -83.9597 130° Southeast 406 467 33,000  Level Cleveland Center
12:40PM 41.9972 -83.8383 129° Southeast 412 474 33,000  Level Cleveland Center
12:41PM 41.9253 -83.7203 129° Southeast 412 474 33,000  Level Cleveland Center
12:42PM 41.8472 -83.5992 131° Southeast 417 480 33,000  Level Cleveland Center
12:43PM 41.7714 -83.4761 130° Southeast 417 480 33,000  Level Cleveland Center
12:44PM 41.6950 -83.3586 131° Southeast 417 480 33,000  Level Cleveland Center
12:45PM 41.6186 -83.2358 130° Southeast 422 486 33,000  Level Cleveland Center
12:46PM 41.5461 -83.1272 132° Southeast 422 486 33,000  Level Cleveland Center
12:47PM 41.4694 -83.0053 130° Southeast 428 493 33,000  Level Cleveland Center
12:48PM 41.3867 -82.8775 131° Southeast 439 505 33,000  Level Cleveland Center
12:49PM 41.3078 -82.7558 131° Southeast 439 505 33,000  Level Cleveland Center
12:50PM 41.2286 -82.6289 130° Southeast 445 512 33,000  Level Cleveland Center
12:51PM 41.1475 -82.5050 131° Southeast 445 512 33,000  Level Cleveland Center
12:52PM 41.0661 -82.3814 131° Southeast 445 512 33,000  Level Cleveland Center
12:53PM 40.9847 -82.2556 131° Southeast 445 512 33,000  Level Cleveland Center
12:54PM 40.8969 -82.1242 131° Southeast 445 512 33,000  Level Cleveland Center
12:55PM 40.8150 -81.9989 131° Southeast 445 512 33,000  Level Cleveland Center
12:56PM 40.7331 -81.8764 131° Southeast 445 512 33,000  Level Cleveland Center
12:57PM 40.6531 -81.7517 130° Southeast 445 512 33,000  Level Cleveland Center
12:58PM 40.5689 -81.6272 132° Southeast 445 512 33,000  Level Cleveland Center
12:59PM 40.4844 -81.5058 132° Southeast 452 520 33,000  Level Cleveland Center
01:00PM 40.4061 -81.3792 129° Southeast 452 520 33,000  Level Cleveland Center
01:01PM 40.3217 -81.2558 132° Southeast 446 513 33,000  Level Cleveland Center
01:02PM 40.2367 -81.1297 131° Southeast 446 513 33,000  Level Cleveland Center
01:03PM 40.1519 -81.0069 132° Southeast 451 519 33,000  Level Cleveland Center
01:04PM 40.0667 -80.8814 132° Southeast 451 519 33,000  Level Cleveland Center
01:05PM 39.9775 -80.7539 132° Southeast 457 526 33,000  Level Cleveland Center
01:06PM 39.8878 -80.6292 133° Southeast 462 532 33,000  Level Cleveland Center
01:08PM 39.7236 -80.4103 134° Southeast 468 539 33,000  Level Washington Center
01:09PM 39.6347 -80.2856 133° Southeast 473 544 33,000  Level Washington Center
01:10PM 39.5436 -80.1614 134° Southeast 473 544 33,000  Level Washington Center
01:11PM 39.4506 -80.0344 133° Southeast 473 544 33,000 -900 Level Washington Center
01:12PM 39.3611 -79.9108 133° Southeast 473 544 31,300 -1,260 Descending Washington Center
01:13PM 39.2892 -79.7697 123° Southeast 473 544 30,500 -900 Descending Washington Center
01:14PM 39.2783 -79.5975 95° East 451 519 29,600 -1,680 Descending Washington Center
01:16PM 39.2495 -79.3790 98° East  Level FlightAware Approximate
01:16PM 39.2531 -79.2797 98° East 451 519 25,600  Level Washington Center
01:17PM 39.2369 -79.1208 97° East 445 512 24,000 -1,020 Descending Washington Center
01:18PM 39.2247 -78.9675 96° East 440 506 23,600 -1,380 Descending Washington Center
01:19PM 39.2081 -78.8142 98° East 434 499 21,300 -2,340 Descending Washington Center
01:20PM 39.1953 -78.6661 96° East 427 491 19,000 -2,220 Descending Washington Center
01:21PM 39.1819 -78.5292 97° East 409 471 16,900 -1,800 Descending Washington Center
01:22PM 39.1683 -78.3972 98° East 389 448 15,500 -1,200 Descending Washington Center
01:23PM 39.1383 -78.2542 105° East 377 434 14,600 -720 Descending Washington Center
01:24PM 39.1056 -78.1275 108° East 371 427 14,100 -720 Descending Washington Center
01:25PM 39.0728 -78.0033 109° East 371 427 13,200 -900 Descending Washington Center
01:26PM 39.0417 -77.8792 108° East 371 427 12,300 -1,500 Descending Washington Center
01:27PM 39.0106 -77.7581 108° East 365 420 10,200 -1,680 Descending Washington Center
01:28PM 38.9833 -77.6453 107° East 341 392 9,000 -1,020 Descending Washington Center
01:29PM 38.9667 -77.5500 103° East 318 366 8,400 -720 Descending Potomac TRACON
01:30PM 38.9500 -77.4500 102° East 317 365 7,700 -1,260 Descending Potomac TRACON
01:31PM 38.9833 -77.3500 67° East 314 361 5,900 -1,800 Descending Potomac TRACON
01:32PM 38.9833 -77.2333 90° East 285 328 4,100 -1,800 Descending Potomac TRACON